Barstow-Daggett, CA

11:22 AM PST on February 28, 2015 (GMT -0800)
Big Bear City | Change Station
CLOSE
Current Station
Airport
Location: Big Bear City,
Elevation: 6752 ft
Nearby Weather Stations
Active Advisory: Wind Advisory

Elev 6752 ft 34.26 °N, 116.86 °W | Updated 7 minutes ago

Overcast
Overcast
32 °F
Feels Like 21 °F
N
16
Wind Variable Wind from West
Gusts 31 mph

Today
High -- | Low -- °F
--% Chance of Precip.
Yesterday
High -- | Low -- °F
Precip. -- in
6:17 AM 5:41 PM
Waxing Gibbous, 79% visible
Pressure 29.82 in
Visibility 10.0 miles
Clouds Mostly Cloudy 1700 ft
Overcast 2200 ft
Windchill 21 °F
Dew Point 25 °F
Humidity 75%
Rainfall 0.00 in
Snow Depth Not available.
UV 2 out of 12
Pollen 8.50 out of 12
Air Quality Not available.
Flu Activity Not available.
METAR KL35 281915Z AUTO 26014G27KT 10SM BKN017 OVC022 00/M04 A2982 RMK AO2

More Conditions Fewer Conditions

Pressure 29.82 in
Visibility 10.0 miles
Clouds Mostly Cloudy 1700 ft
Overcast 2200 ft
Windchill 21 °F
Dew Point 25 °F
Humidity 75%
Rainfall 0.00 in
Snow Depth Not available.
UV 2 out of 12
Pollen 8.50 out of 12
Air Quality Not available.
Flu Activity Not available.
METAR KL35 281915Z AUTO 26014G27KT 10SM BKN017 OVC022 00/M04 A2982 RMK AO2

More Conditions Fewer Conditions

10-Day Weather Forecast

Almanac

Astronomy

Feb. 28, 2015 Rise Set
Actual Time
Civil Twilight
Nautical Twilight
Astronomical Twilight
Moon
Length of Visible Light
Length of Day
Tomorrow will be .
, % of the Moon is Illuminated

Today's Extremes

State Highs State Lows

Community

WunderPhotos

Upload Photos

1,801,122 photos uploaded!

WunderBlogs® & News

Nearby

Air Quality

  Air Quality AQ Index Pollutant
Not available.

Snow Depth

Station Depth Elevation

Earthquake Activity

City Distance Mag. Time & Date
Minimum magnitude displayed is 2.5.

Coastal Water Temperatures

Place Temperature

Nearby Weather Stations

Wind Advisory
Statement as of 10:21 AM PST on February 28, 2015

... Wind Advisory remains in effect until 7 PM PST this evening...

A Wind Advisory remains in effect until 7 PM PST this evening.

* Winds: west at 20 to 30 mph with gusts of 40 to 50 mph.

* Timing: winds will increase and remain gusty into this afternoon
before decreasing this evening.

* Locations: Barstow... Daggett... Fort Irwin... Kramer Junction
and Trona.

* Impacts: strong Crosswinds will make for difficult driving
conditions on area roads including interstates 15 and 40 as
well as highways 58 and 395. Areas of blowing sand and dust
are possible resulting in reduced visibility. Any loose
objects outside will be blown away.

Precautionary/preparedness actions...

A Wind Advisory means that Crosswinds are expected to be strong
enough to make driving difficult... especially for high profile
vehicles. In addition... strong winds over desert areas could result
in briefly lowered visibilities to well under a mile at times in
blowing dust or blowing sand. Use extra caution.